Time;durP1;ratioP1;P1;durP2;ratioP2;P2;SDS_P1;SDS_P2;PMS_P1;PMS_P2;Temp;Humidity;BMP_temperature;BMP_pressure;BME280_temperature;BME280_humidity;BME280_pressure;Samples;Min_cycle;Max_cycle;Signal;HPM_P1;HPM_P2
2022/03/05 00:01:52;;;;;;;2.42;1.65;;;19.00;46.30;;;;;;6244500;28;20543;-68
2022/03/05 00:04:52;;;;;;;1.88;1.13;;;19.00;46.30;;;;;;6244217;28;20396;-68
2022/03/05 00:07:53;;;;;;;1.70;1.20;;;19.00;46.30;;;;;;6244232;28;20034;-68
2022/03/05 00:10:54;;;;;;;1.20;1.05;;;19.00;46.20;;;;;;6244147;28;20052;-68
2022/03/05 00:13:54;;;;;;;1.25;1.10;;;19.00;46.30;;;;;;6244129;28;20030;-68
2022/03/05 00:16:55;;;;;;;1.55;1.30;;;19.00;46.30;;;;;;6244052;28;20451;-67
2022/03/05 00:19:55;;;;;;;1.60;1.33;;;18.90;46.20;;;;;;6244077;28;20029;-68
2022/03/05 00:22:56;;;;;;;2.03;1.30;;;19.00;46.30;;;;;;6243954;28;20088;-67
2022/03/05 00:25:58;;;;;;;2.47;1.60;;;19.00;46.30;;;;;;6243590;28;20387;-68
2022/03/05 00:28:58;;;;;;;1.77;1.23;;;19.00;46.40;;;;;;6243966;28;20036;-68
2022/03/05 00:31:59;;;;;;;1.73;1.17;;;19.00;46.30;;;;;;6243766;28;20017;-68
2022/03/05 00:34:59;;;;;;;1.60;1.33;;;18.90;46.20;;;;;;6243839;28;20069;-68
2022/03/05 00:38:00;;;;;;;2.42;1.45;;;18.90;46.20;;;;;;6243575;28;20033;-68
2022/03/05 00:41:00;;;;;;;1.50;1.30;;;19.00;46.30;;;;;;6242689;28;20389;-68
2022/03/05 00:44:01;;;;;;;1.58;1.20;;;19.00;46.30;;;;;;6222373;28;20025;-68
2022/03/05 00:47:02;;;;;;;1.63;1.00;;;19.00;46.30;;;;;;6219381;28;20030;-68
2022/03/05 00:50:05;;;;;;;1.63;1.25;;;19.00;46.40;;;;;;6223805;28;20083;-67
2022/03/05 00:53:06;;;;;;;2.47;1.25;;;18.90;46.30;;;;;;6243185;28;20025;-68
2022/03/05 00:56:07;;;;;;;1.73;1.02;;;19.00;46.30;;;;;;6243556;28;20037;-68
2022/03/05 00:59:08;;;;;;;1.65;1.20;;;18.90;46.20;;;;;;6243261;28;20053;-68
2022/03/05 01:02:08;;;;;;;1.38;1.10;;;19.00;46.40;;;;;;6243430;28;20022;-68
2022/03/05 01:05:10;;;;;;;1.75;1.30;;;18.90;46.30;;;;;;6243129;28;20071;-68
2022/03/05 01:08:12;;;;;;;2.15;1.20;;;18.90;46.20;;;;;;6243328;28;20061;-68
2022/03/05 01:11:15;;;;;;;1.40;1.30;;;19.00;46.30;;;;;;6243055;28;20029;-67
2022/03/05 01:14:16;;;;;;;2.47;1.30;;;19.00;46.30;;;;;;6243371;28;20028;-67
2022/03/05 01:17:18;;;;;;;2.33;1.38;;;19.00;46.30;;;;;;6242997;28;20698;-68
2022/03/05 01:20:18;;;;;;;1.45;1.13;;;19.00;46.40;;;;;;6243254;28;20128;-67
2022/03/05 01:23:19;;;;;;;1.85;1.30;;;19.00;46.40;;;;;;6242974;28;20037;-68
2022/03/05 01:26:20;;;;;;;1.52;1.10;;;19.00;46.30;;;;;;6242859;28;20061;-68
2022/03/05 01:29:20;;;;;;;1.42;0.90;;;19.00;46.40;;;;;;6243379;28;20037;-67
2022/03/05 01:32:21;;;;;;;1.50;1.02;;;19.00;46.40;;;;;;6242887;28;20113;-67
2022/03/05 01:35:22;;;;;;;3.70;1.20;;;19.00;46.30;;;;;;6243394;28;20029;-66
2022/03/05 01:38:22;;;;;;;1.63;1.20;;;19.00;46.40;;;;;;6242772;28;20041;-68
2022/03/05 01:41:23;;;;;;;2.00;1.23;;;19.00;46.40;;;;;;6243335;28;20342;-66
2022/03/05 01:44:24;;;;;;;1.60;1.30;;;19.00;46.30;;;;;;6218963;28;20026;-68
2022/03/05 01:47:25;;;;;;;1.30;1.00;;;18.90;46.20;;;;;;6218306;28;20088;-68
2022/03/05 01:50:26;;;;;;;1.92;1.30;;;19.00;46.30;;;;;;6218402;28;20033;-67
2022/03/05 01:53:26;;;;;;;2.25;1.40;;;19.00;46.40;;;;;;6244895;28;20033;-66
2022/03/05 01:56:28;;;;;;;1.38;1.02;;;19.00;46.40;;;;;;6247429;28;20503;-68
2022/03/05 01:59:29;;;;;;;1.40;1.08;;;19.00;46.40;;;;;;6247607;28;20017;-67
2022/03/05 02:02:29;;;;;;;1.75;1.20;;;19.00;46.30;;;;;;6247315;28;20110;-68
2022/03/05 02:05:30;;;;;;;1.20;1.10;;;19.00;46.30;;;;;;6247181;28;20484;-68
2022/03/05 02:08:30;;;;;;;1.83;1.13;;;18.90;46.30;;;;;;6247091;28;20047;-68
2022/03/05 02:11:31;;;;;;;1.50;1.08;;;18.90;46.30;;;;;;6247327;28;20029;-68
2022/03/05 02:14:32;;;;;;;1.88;1.23;;;18.90;46.30;;;;;;6246981;28;20033;-68
2022/03/05 02:17:32;;;;;;;2.05;1.50;;;19.00;46.40;;;;;;6247152;28;20302;-67
2022/03/05 02:20:33;;;;;;;1.88;1.15;;;18.90;46.30;;;;;;6246785;28;20029;-68
2022/03/05 02:23:33;;;;;;;1.48;1.00;;;19.00;46.30;;;;;;6246814;28;20163;-68
2022/03/05 02:26:34;;;;;;;1.48;1.17;;;19.00;46.30;;;;;;6246242;28;20033;-68
2022/03/05 02:29:35;;;;;;;2.13;1.30;;;18.90;46.30;;;;;;6246866;28;20025;-68
2022/03/05 02:32:36;;;;;;;1.70;1.30;;;19.00;46.30;;;;;;6246411;28;20048;-68
2022/03/05 02:35:36;;;;;;;2.03;1.30;;;18.90;46.30;;;;;;6246462;28;20464;-68
2022/03/05 02:38:37;;;;;;;1.90;1.17;;;19.00;46.20;;;;;;6246298;28;20010;-67
2022/03/05 02:41:38;;;;;;;1.38;1.05;;;19.00;46.40;;;;;;6244569;28;20460;-68
2022/03/05 02:44:38;;;;;;;1.55;1.17;;;19.00;46.30;;;;;;6221671;28;20026;-68
2022/03/05 02:47:39;;;;;;;2.85;1.20;;;18.90;46.10;;;;;;6221692;28;20084;-67
2022/03/05 02:50:41;;;;;;;1.40;1.10;;;18.90;46.20;;;;;;6222416;28;20072;-68
2022/03/05 02:53:41;;;;;;;2.38;1.02;;;19.00;46.40;;;;;;6246029;28;20423;-68
2022/03/05 02:56:42;;;;;;;1.52;1.20;;;18.90;46.30;;;;;;6245804;28;20079;-68
2022/03/05 02:59:43;;;;;;;1.30;1.00;;;18.90;46.20;;;;;;6246014;28;20021;-68
2022/03/05 03:02:45;;;;;;;1.50;1.05;;;19.00;46.30;;;;;;6245882;28;20095;-68
2022/03/05 03:05:46;;;;;;;1.67;1.17;;;18.90;46.30;;;;;;6244939;28;20057;-68
2022/03/05 03:08:46;;;;;;;1.10;1.00;;;18.90;46.20;;;;;;6245665;28;20044;-68
2022/03/05 03:11:47;;;;;;;1.55;1.00;;;19.00;46.40;;;;;;6246054;28;20362;-67
2022/03/05 03:14:47;;;;;;;1.48;1.10;;;18.90;46.30;;;;;;6245487;28;20029;-68
2022/03/05 03:17:50;;;;;;;1.52;1.27;;;18.90;46.30;;;;;;6245539;28;20025;-68
2022/03/05 03:20:50;;;;;;;1.77;1.10;;;18.90;46.30;;;;;;6245811;28;20033;-68
2022/03/05 03:23:51;;;;;;;1.55;1.00;;;18.90;46.20;;;;;;6245655;28;20420;-68
2022/03/05 03:26:51;;;;;;;1.63;1.20;;;18.90;46.20;;;;;;6244717;28;20057;-68
2022/03/05 03:29:52;;;;;;;3.08;1.30;;;18.90;46.30;;;;;;6245283;28;20022;-68
2022/03/05 03:32:52;;;;;;;1.15;1.05;;;18.90;46.30;;;;;;6245038;28;20501;-67
2022/03/05 03:35:53;;;;;;;1.70;1.10;;;18.90;46.20;;;;;;6245334;28;20033;-68
2022/03/05 03:38:53;;;;;;;0.98;0.80;;;18.90;46.30;;;;;;6244536;28;20515;-68
2022/03/05 03:41:54;;;;;;;2.33;1.35;;;18.90;46.30;;;;;;6240076;28;20088;-68
2022/03/05 03:44:54;;;;;;;2.13;1.27;;;18.90;46.30;;;;;;6219679;28;20057;-69
2022/03/05 03:47:55;;;;;;;1.77;1.20;;;18.90;46.20;;;;;;6219727;28;20034;-68
2022/03/05 03:50:55;;;;;;;1.75;1.20;;;18.90;46.40;;;;;;6223225;28;20076;-68
2022/03/05 03:53:56;;;;;;;1.23;0.90;;;18.90;46.20;;;;;;6244493;28;20025;-67
2022/03/05 03:56:56;;;;;;;2.30;1.13;;;18.90;46.20;;;;;;6244444;28;20028;-67
2022/03/05 03:59:57;;;;;;;1.30;1.15;;;19.00;46.30;;;;;;6244490;28;20049;-67
2022/03/05 04:02:58;;;;;;;1.33;0.93;;;18.90;46.20;;;;;;6242313;28;20030;-67
2022/03/05 04:05:58;;;;;;;1.20;1.00;;;18.90;46.30;;;;;;6244767;28;20061;-68
2022/03/05 04:08:59;;;;;;;2.03;1.10;;;18.90;46.30;;;;;;6243898;28;20523;-68
2022/03/05 04:11:59;;;;;;;1.20;0.88;;;18.90;46.10;;;;;;6244389;28;20083;-68
2022/03/05 04:15:00;;;;;;;2.50;1.38;;;18.90;46.20;;;;;;6244178;28;20395;-68
2022/03/05 04:18:00;;;;;;;1.50;1.08;;;18.90;46.30;;;;;;6243912;28;20025;-68
2022/03/05 04:21:01;;;;;;;1.38;1.00;;;18.90;46.30;;;;;;6244168;28;20381;-68
2022/03/05 04:24:02;;;;;;;2.00;1.30;;;18.90;46.20;;;;;;6243948;28;20111;-68
2022/03/05 04:27:03;;;;;;;1.65;1.13;;;18.90;46.20;;;;;;6243335;28;20034;-67
2022/03/05 04:30:06;;;;;;;1.27;1.00;;;18.90;46.20;;;;;;6244062;28;20021;-68
2022/03/05 04:33:06;;;;;;;1.95;1.35;;;18.90;46.20;;;;;;6243481;28;20163;-67
2022/03/05 04:36:07;;;;;;;1.15;0.95;;;18.90;46.30;;;;;;6243912;28;20021;-68
2022/03/05 04:39:07;;;;;;;1.70;1.13;;;18.90;46.20;;;;;;6243568;28;20053;-67
2022/03/05 04:42:08;;;;;;;1.25;1.02;;;18.90;46.30;;;;;;6238283;28;20447;-67
2022/03/05 04:45:09;;;;;;;1.38;0.98;;;18.90;46.30;;;;;;6219293;28;20026;-68
2022/03/05 04:48:10;;;;;;;1.55;1.08;;;18.90;46.20;;;;;;6218839;28;20477;-68
2022/03/05 04:51:10;;;;;;;1.80;1.17;;;18.90;46.30;;;;;;6224528;28;20175;-68
2022/03/05 04:54:11;;;;;;;1.73;1.10;;;18.90;46.30;;;;;;6243495;28;20037;-68
2022/03/05 04:57:11;;;;;;;2.17;1.10;;;18.90;46.20;;;;;;6243387;28;20108;-68
2022/03/05 05:00:40;;;;;;;1.95;1.30;;;18.90;46.30;;;;;;6243381;28;20021;-67
2022/03/05 05:03:40;;;;;;;1.45;1.00;;;18.90;46.30;;;;;;6243409;28;20021;-68
2022/03/05 05:06:41;;;;;;;1.55;1.10;;;18.90;46.20;;;;;;6243437;28;20400;-68
2022/03/05 05:09:42;;;;;;;1.83;1.02;;;18.90;46.20;;;;;;6243587;28;20044;-68
2022/03/05 05:12:42;;;;;;;1.40;1.13;;;18.90;46.30;;;;;;6243389;28;20030;-67
2022/03/05 05:15:45;;;;;;;2.40;1.10;;;18.90;46.20;;;;;;6243423;28;20496;-68
2022/03/05 05:22:06;;;;;;;1.67;1.08;;;18.90;46.30;;;;;;6243152;28;20057;-68
2022/03/05 05:25:07;;;;;;;1.98;1.33;;;18.90;46.30;;;;;;6242789;28;20077;-68
2022/03/05 05:28:08;;;;;;;1.92;1.25;;;18.90;46.30;;;;;;6245339;28;20457;-68
2022/03/05 05:31:08;;;;;;;2.25;1.35;;;18.90;46.20;;;;;;6248225;28;20025;-67
2022/03/05 05:34:09;;;;;;;1.60;1.30;;;18.90;46.20;;;;;;6247456;28;20036;-66
2022/03/05 05:37:10;;;;;;;1.92;1.33;;;18.90;46.30;;;;;;6247983;28;20029;-68
2022/03/05 05:40:10;;;;;;;1.10;0.85;;;18.90;46.30;;;;;;6247633;28;20032;-68
2022/03/05 05:43:11;;;;;;;1.55;1.10;;;18.90;46.30;;;;;;6233557;28;20037;-68
2022/03/05 05:46:12;;;;;;;1.98;1.20;;;18.90;46.20;;;;;;6223092;28;20018;-68
2022/03/05 05:49:12;;;;;;;1.83;1.17;;;18.90;46.20;;;;;;6223123;28;20053;-68
2022/03/05 05:52:13;;;;;;;1.88;1.30;;;18.90;46.30;;;;;;6236803;28;20396;-68
2022/03/05 05:55:14;;;;;;;1.40;1.10;;;18.90;46.30;;;;;;6247885;28;20507;-68
2022/03/05 05:58:14;;;;;;;1.48;1.20;;;18.90;46.30;;;;;;6247214;28;20049;-68
2022/03/05 06:01:16;;;;;;;2.25;1.35;;;18.90;46.30;;;;;;6243189;28;20030;-68
2022/03/05 06:04:16;;;;;;;1.27;0.95;;;18.90;46.30;;;;;;6223188;28;20022;-68
2022/03/05 06:07:17;;;;;;;4.10;1.48;;;18.90;46.30;;;;;;6222663;28;20049;-68
2022/03/05 06:10:17;;;;;;;1.67;1.20;;;18.90;46.30;;;;;;6222727;28;20022;-68
2022/03/05 06:13:18;;;;;;;2.10;1.17;;;18.90;46.30;;;;;;6222343;28;20405;-67
2022/03/05 06:16:19;;;;;;;1.77;1.02;;;18.90;46.30;;;;;;6222361;28;20030;-68
2022/03/05 06:19:19;;;;;;;1.73;1.02;;;18.90;46.40;;;;;;6222558;28;20034;-68
2022/03/05 06:22:20;;;;;;;1.65;1.10;;;18.90;46.30;;;;;;6222617;28;20026;-67
2022/03/05 06:25:20;;;;;;;2.80;1.30;;;18.90;46.20;;;;;;6224565;28;20068;-68
2022/03/05 06:28:21;;;;;;;1.35;1.02;;;18.90;46.30;;;;;;6242861;28;20361;-68
2022/03/05 06:31:21;;;;;;;2.67;1.30;;;18.90;46.30;;;;;;6246966;28;20026;-68
2022/03/05 06:34:22;;;;;;;2.35;1.25;;;18.90;46.30;;;;;;6246548;28;20087;-67
2022/03/05 06:37:23;;;;;;;1.52;1.13;;;18.90;46.30;;;;;;6246493;28;20389;-68
2022/03/05 06:40:23;;;;;;;1.58;1.17;;;18.90;46.40;;;;;;6244889;28;20022;-67
2022/03/05 06:43:24;;;;;;;1.50;1.10;;;18.90;46.40;;;;;;6230200;28;20022;-68
2022/03/05 06:46:24;;;;;;;2.40;1.20;;;18.90;46.30;;;;;;6221737;28;20030;-68
2022/03/05 06:49:25;;;;;;;1.77;1.30;;;18.90;46.40;;;;;;6221657;28;20105;-68
2022/03/05 06:52:25;;;;;;;2.78;1.42;;;18.90;46.40;;;;;;6236991;28;20504;-67
2022/03/05 06:55:26;;;;;;;1.98;1.13;;;18.90;46.40;;;;;;6246852;28;20388;-68
2022/03/05 06:58:26;;;;;;;2.40;1.50;;;18.90;46.40;;;;;;6246204;28;20029;-68
2022/03/05 07:01:27;;;;;;;2.92;1.25;;;18.90;46.40;;;;;;6217444;28;20085;-67
2022/03/05 07:04:28;;;;;;;1.67;1.13;;;18.90;46.40;;;;;;6187475;28;20062;-67
2022/03/05 07:07:28;;;;;;;2.17;1.33;;;18.90;46.40;;;;;;6199713;28;20031;-67
2022/03/05 07:10:29;;;;;;;3.65;1.30;;;18.90;46.40;;;;;;6194857;28;20141;-67
2022/03/05 07:13:29;;;;;;;2.08;1.38;;;19.00;46.50;;;;;;6195149;28;20031;-67
2022/03/05 07:16:30;;;;;;;2.15;0.93;;;18.90;46.40;;;;;;6195275;28;20481;-67
2022/03/05 07:19:30;;;;;;;4.78;1.65;;;18.90;46.30;;;;;;6194505;28;20018;-67
2022/03/05 07:22:31;;;;;;;2.10;1.17;;;18.90;46.40;;;;;;6194853;28;20401;-66
2022/03/05 07:25:36;;;;;;;2.22;1.20;;;18.90;46.30;;;;;;6194507;28;20701;-65
2022/03/05 07:28:36;;;;;;;1.42;1.10;;;18.90;46.30;;;;;;6194906;28;20038;-68
2022/03/05 07:31:38;;;;;;;2.67;1.35;;;18.90;46.40;;;;;;6194144;28;20065;-68
2022/03/05 07:34:38;;;;;;;2.88;1.40;;;18.90;47.10;;;;;;6194261;28;20117;-67
2022/03/05 07:37:39;;;;;;;2.35;1.30;;;18.90;46.50;;;;;;6193638;28;20417;-67
2022/03/05 07:40:40;;;;;;;4.00;1.50;;;19.00;46.50;;;;;;6194471;28;20483;-67
2022/03/05 07:43:40;;;;;;;2.67;1.40;;;18.90;46.50;;;;;;6194552;28;20068;-67
2022/03/05 07:46:41;;;;;;;2.10;1.30;;;18.90;46.50;;;;;;6194114;28;20034;-67
2022/03/05 07:49:41;;;;;;;2.53;1.40;;;18.90;46.50;;;;;;6194026;28;20033;-67
2022/03/05 07:52:42;;;;;;;3.65;1.48;;;18.90;46.50;;;;;;6193746;28;20028;-68
2022/03/05 07:55:42;;;;;;;3.78;1.40;;;18.90;46.60;;;;;;6186791;28;20398;-67
2022/03/05 07:58:43;;;;;;;3.05;1.40;;;18.90;46.50;;;;;;6189925;28;20117;-67
2022/03/05 08:01:43;;;;;;;2.33;1.30;;;18.90;46.60;;;;;;6193646;28;20037;-66
2022/03/05 08:04:44;;;;;;;1.75;1.23;;;19.00;46.50;;;;;;6193775;28;20450;-67
2022/03/05 08:07:45;;;;;;;2.88;1.38;;;19.00;46.20;;;;;;6204272;28;20152;-67
2022/03/05 08:10:45;;;;;;;1.23;1.10;;;19.00;46.10;;;;;;6189028;28;20256;-67
2022/03/05 08:13:46;;;;;;;5.05;1.20;;;19.00;46.10;;;;;;6169532;28;20105;-67
2022/03/05 08:16:46;;;;;;;4.63;1.80;;;19.10;46.20;;;;;;6190940;28;20042;-67
2022/03/05 08:19:47;;;;;;;2.75;1.50;;;19.10;46.00;;;;;;6193807;28;20031;-67
2022/03/05 08:22:47;;;;;;;2.38;1.42;;;19.10;45.90;;;;;;6192521;28;20385;-67
2022/03/05 08:25:48;;;;;;;2.80;1.20;;;19.10;46.00;;;;;;6194397;28;20109;-67
2022/03/05 08:28:48;;;;;;;4.05;1.52;;;19.10;45.90;;;;;;6193844;28;20057;-67
2022/03/05 08:31:50;;;;;;;2.42;1.42;;;19.10;45.90;;;;;;6193023;28;20112;-67
2022/03/05 08:34:51;;;;;;;2.22;1.40;;;19.10;45.90;;;;;;6193105;28;20509;-67
2022/03/05 08:37:52;;;;;;;2.13;1.50;;;19.10;45.90;;;;;;6193695;28;20040;-67
2022/03/05 08:40:52;;;;;;;1.85;1.25;;;19.10;46.20;;;;;;6192600;28;20390;-68
2022/03/05 08:43:53;;;;;;;2.45;1.40;;;19.10;46.30;;;;;;6193021;28;20113;-67
2022/03/05 08:46:53;;;;;;;2.70;1.50;;;19.10;46.40;;;;;;6193452;28;20042;-68
2022/03/05 08:49:54;;;;;;;4.40;1.45;;;19.00;46.40;;;;;;6192861;28;20474;-67
2022/03/05 08:52:54;;;;;;;2.42;1.42;;;19.00;46.50;;;;;;6192457;28;20025;-67
2022/03/05 08:55:56;;;;;;;2.53;1.40;;;19.00;46.60;;;;;;6183691;28;20047;-67
2022/03/05 08:58:56;;;;;;;4.60;1.90;;;19.00;46.80;;;;;;6169071;28;20021;-67
2022/03/05 09:01:57;;;;;;;4.60;2.60;;;18.90;45.90;;;;;;6167696;28;20023;-67
2022/03/05 09:04:58;;;;;;;7.30;3.50;;;18.90;44.60;;;;;;6182292;28;20033;-67
2022/03/05 09:07:58;;;;;;;9.70;4.57;;;18.90;42.90;;;;;;6212667;28;20034;-68
2022/03/05 09:10:58;;;;;;;9.02;4.22;;;18.90;41.70;;;;;;6216818;28;20034;-67
2022/03/05 09:13:59;;;;;;;13.23;5.60;;;18.80;40.80;;;;;;6216989;28;20032;-67
2022/03/05 09:16:59;;;;;;;8.60;4.40;;;18.80;39.90;;;;;;6216996;28;20033;-67
2022/03/05 09:20:00;;;;;;;10.45;4.75;;;18.80;40.50;;;;;;6216795;28;20436;-68
2022/03/05 09:23:01;;;;;;;12.32;5.75;;;18.80;41.30;;;;;;6216814;28;20050;-68
2022/03/05 09:26:02;;;;;;;11.10;4.97;;;18.80;40.50;;;;;;6212449;28;20163;-68
2022/03/05 09:29:03;;;;;;;8.82;4.38;;;18.80;41.10;;;;;;6192518;28;20043;-66
2022/03/05 09:32:04;;;;;;;10.95;5.78;;;18.80;40.30;;;;;;6192098;28;20563;-68
2022/03/05 09:35:05;;;;;;;12.38;5.50;;;18.80;40.00;;;;;;6192560;28;20498;-66
2022/03/05 09:38:06;;;;;;;14.13;5.85;;;18.80;38.90;;;;;;6192579;28;20029;-67
2022/03/05 09:41:07;;;;;;;13.23;5.80;;;18.80;38.10;;;;;;6192000;28;20073;-67
2022/03/05 09:44:07;;;;;;;9.05;4.55;;;18.80;40.20;;;;;;6192373;28;20109;-65
2022/03/05 09:47:09;;;;;;;8.98;4.30;;;18.90;41.10;;;;;;6192260;28;20045;-67
2022/03/05 09:50:10;;;;;;;15.10;4.72;;;18.90;41.30;;;;;;6191379;28;20041;-66
2022/03/05 09:53:11;;;;;;;12.10;4.93;;;18.90;41.60;;;;;;6191753;28;20045;-67
2022/03/05 09:56:11;;;;;;;11.30;4.80;;;18.90;41.70;;;;;;6181041;28;20371;-66
2022/03/05 09:59:12;;;;;;;7.60;4.75;;;18.90;42.10;;;;;;6167889;28;20027;-67
2022/03/05 10:02:12;;;;;;;13.82;4.43;;;18.90;41.70;;;;;;6167650;28;20113;-67
2022/03/05 10:05:27;;;;;;;11.38;4.40;;;18.90;41.20;;;;;;6168029;28;20023;-68
2022/03/05 10:08:28;;;;;;;8.43;4.50;;;18.90;41.60;;;;;;6191093;28;20062;-68
2022/03/05 10:11:39;;;;;;;9.00;4.18;;;18.90;41.90;;;;;;6191438;28;20101;-68
2022/03/05 10:14:40;;;;;;;8.80;4.95;;;18.90;42.10;;;;;;6195460;28;20441;-68
2022/03/05 10:17:48;;;;;;;6.57;3.92;;;18.90;41.90;;;;;;6196332;28;20528;-68
2022/03/05 10:20:52;;;;;;;9.82;4.13;;;18.90;42.20;;;;;;6196205;28;20058;-67
2022/03/05 10:24:07;;;;;;;6.85;3.92;;;18.90;42.30;;;;;;6195026;28;20501;-68
2022/03/05 10:27:09;;;;;;;10.57;4.05;;;18.90;42.50;;;;;;6194230;28;20034;-67
2022/03/05 10:30:10;;;;;;;8.20;3.72;;;18.90;42.60;;;;;;6196317;28;20036;-68
2022/03/05 10:33:42;;;;;;;6.95;3.63;;;18.90;42.80;;;;;;6196634;28;20137;-67
2022/03/05 10:36:56;;;;;;;9.35;3.65;;;18.90;43.70;;;;;;6196071;28;20069;-67
2022/03/05 10:39:58;;;;;;;8.05;3.92;;;18.90;42.90;;;;;;6195938;28;20397;-67
2022/03/05 10:43:07;;;;;;;6.95;4.05;;;18.90;43.20;;;;;;6195552;28;20516;-68
2022/03/05 10:46:07;;;;;;;6.00;3.80;;;19.00;43.50;;;;;;6196078;28;20220;-67
2022/03/05 10:49:28;;;;;;;7.60;3.65;;;19.00;43.60;;;;;;6195940;28;20034;-67
2022/03/05 10:52:47;;;;;;;5.45;3.58;;;18.90;43.40;;;;;;6195085;28;20555;-67
2022/03/05 10:55:47;;;;;;;8.18;3.25;;;19.00;43.70;;;;;;6188075;28;20027;-67
2022/03/05 10:59:11;;;;;;;7.25;3.10;;;19.00;43.90;;;;;;6171589;28;20034;-67
2022/03/05 11:02:14;;;;;;;5.43;3.22;;;18.90;43.70;;;;;;6171049;28;20027;-68
2022/03/05 11:05:18;;;;;;;5.90;3.22;;;19.00;44.10;;;;;;6171282;28;20027;-68
2022/03/05 11:08:18;;;;;;;5.97;3.03;;;18.90;44.10;;;;;;6215820;28;20087;-67
2022/03/05 11:11:20;;;;;;;5.18;3.17;;;19.00;44.20;;;;;;6210464;28;20282;-67
2022/03/05 11:14:22;;;;;;;4.30;3.00;;;18.90;44.20;;;;;;6195176;28;20141;-68
2022/03/05 11:17:22;;;;;;;4.68;3.00;;;19.00;44.50;;;;;;6195417;28;20072;-68
2022/03/05 11:20:23;;;;;;;4.93;2.80;;;19.00;44.40;;;;;;6194940;28;20266;-67
2022/03/05 11:23:24;;;;;;;4.63;2.92;;;18.90;44.40;;;;;;6194492;28;20033;-67
2022/03/05 11:26:27;;;;;;;6.82;3.47;;;18.90;44.40;;;;;;6193852;28;20092;-67
2022/03/05 11:29:29;;;;;;;6.05;2.95;;;19.00;44.50;;;;;;6194768;28;20064;-68
2022/03/05 11:32:31;;;;;;;4.68;2.85;;;18.90;44.40;;;;;;6194266;28;20136;-67
2022/03/05 11:35:32;;;;;;;5.45;3.00;;;19.00;44.60;;;;;;6194774;28;20393;-67
2022/03/05 11:38:38;;;;;;;5.00;3.10;;;19.00;44.60;;;;;;6194391;28;20026;-67
2022/03/05 11:41:55;;;;;;;4.85;2.80;;;18.90;44.60;;;;;;6193947;28;20019;-67
2022/03/05 11:44:57;;;;;;;5.75;2.92;;;19.00;44.70;;;;;;6194187;28;20030;-68
2022/03/05 11:48:25;;;;;;;4.40;2.80;;;18.90;44.60;;;;;;6194307;28;20192;-68
2022/03/05 11:51:25;;;;;;;4.38;2.55;;;19.00;44.70;;;;;;6193860;28;20026;-67
2022/03/05 11:54:26;;;;;;;4.90;2.50;;;19.00;44.80;;;;;;6193845;28;20520;-67
2022/03/05 11:57:26;;;;;;;5.32;2.80;;;19.10;44.70;;;;;;6193733;28;20038;-67
2022/03/05 12:00:29;;;;;;;5.90;3.33;;;19.00;44.70;;;;;;6193982;28;20026;-68
2022/03/05 12:03:45;;;;;;;5.20;2.85;;;19.00;44.90;;;;;;6192871;28;20056;-68
2022/03/05 12:06:47;;;;;;;5.03;2.88;;;19.00;45.00;;;;;;6202072;28;20026;-68
2022/03/05 12:09:56;;;;;;;4.10;2.40;;;19.00;45.00;;;;;;6216935;28;20026;-68
2022/03/05 12:13:05;;;;;;;8.13;2.70;;;19.00;45.00;;;;;;6217024;28;20113;-67
2022/03/05 12:16:33;;;;;;;11.85;2.67;;;19.00;45.10;;;;;;6216937;28;20565;-68
2022/03/05 12:19:34;;;;;;;3.80;2.67;;;18.90;45.00;;;;;;6216247;28;20042;-67
2022/03/05 12:22:35;;;;;;;4.50;2.42;;;19.00;45.10;;;;;;6206703;28;20149;-68
2022/03/05 12:25:40;;;;;;;4.30;2.22;;;19.00;45.20;;;;;;6191998;28;20054;-68
2022/03/05 12:28:42;;;;;;;4.07;2.25;;;18.90;45.10;;;;;;6192804;28;20034;-68
2022/03/05 12:31:45;;;;;;;4.38;2.65;;;19.00;45.20;;;;;;6191831;28;20114;-67
2022/03/05 12:34:46;;;;;;;3.97;2.13;;;19.00;45.30;;;;;;6191951;28;20109;-66
2022/03/05 12:37:46;;;;;;;4.65;2.83;;;19.00;45.30;;;;;;6192261;28;20323;-67
2022/03/05 12:40:48;;;;;;;5.38;2.40;;;19.00;45.30;;;;;;6191504;28;20050;-67
2022/03/05 12:43:48;;;;;;;3.17;2.33;;;19.00;45.30;;;;;;6191974;28;20026;-67
2022/03/05 12:46:49;;;;;;;4.18;2.33;;;19.00;45.30;;;;;;6191541;28;20022;-66
2022/03/05 12:49:49;;;;;;;6.00;2.58;;;19.00;45.40;;;;;;6191668;28;20078;-66
2022/03/05 12:53:08;;;;;;;3.65;2.22;;;19.00;45.40;;;;;;6191770;28;20097;-68
2022/03/05 12:56:09;;;;;;;4.25;2.53;;;19.00;45.50;;;;;;6191573;28;20033;-68
2022/03/05 12:59:09;;;;;;;6.70;2.28;;;19.00;45.40;;;;;;6191255;28;20034;-68
2022/03/05 13:02:10;;;;;;;3.50;2.15;;;19.00;45.50;;;;;;6191378;28;20060;-67
2022/03/05 13:05:14;;;;;;;4.13;2.33;;;19.00;45.50;;;;;;6191304;28;20034;-68
2022/03/05 13:08:21;;;;;;;3.13;2.13;;;19.00;46.20;;;;;;6213345;28;20042;-68
2022/03/05 13:11:24;;;;;;;3.58;2.20;;;19.00;45.60;;;;;;6215081;28;20029;-68
2022/03/05 13:14:24;;;;;;;4.30;2.47;;;19.00;45.50;;;;;;6215762;28;20044;-67
2022/03/05 13:17:25;;;;;;;4.10;2.10;;;19.00;45.50;;;;;;6215988;28;20030;-68
2022/03/05 13:20:25;;;;;;;6.72;2.42;;;19.00;45.40;;;;;;6216056;28;20034;-68
2022/03/05 13:23:26;;;;;;;5.05;2.20;;;19.00;44.30;;;;;;6215145;28;20037;-66
2022/03/05 13:26:26;;;;;;;5.10;2.38;;;18.90;44.80;;;;;;6210959;28;20409;-68
2022/03/05 13:29:27;;;;;;;3.53;2.20;;;19.00;45.10;;;;;;6190266;28;20039;-68
2022/03/05 13:32:41;;;;;;;5.70;2.25;;;18.90;45.10;;;;;;6191408;28;20023;-68
2022/03/05 13:35:43;;;;;;;4.00;2.38;;;19.00;45.40;;;;;;6191772;28;20038;-68
2022/03/05 13:38:45;;;;;;;4.75;2.22;;;19.00;45.70;;;;;;6191685;28;20509;-67
2022/03/05 13:41:56;;;;;;;6.43;2.20;;;19.00;45.40;;;;;;6190800;28;20385;-68
2022/03/05 13:45:00;;;;;;;3.80;2.20;;;19.00;45.40;;;;;;6189859;28;20034;-67
2022/03/05 13:48:01;;;;;;;3.67;1.95;;;19.00;45.50;;;;;;6192032;28;20031;-68
2022/03/05 13:51:19;;;;;;;5.40;2.10;;;19.00;45.50;;;;;;6195624;28;20030;-67
2022/03/05 13:54:39;;;;;;;2.30;1.70;;;18.90;45.30;;;;;;6195550;28;20509;-67
2022/03/05 13:57:45;;;;;;;2.70;1.70;;;18.90;45.40;;;;;;6172864;28;20101;-67
2022/03/05 14:00:45;;;;;;;5.25;1.85;;;18.90;45.40;;;;;;6191508;28;20030;-68
2022/03/05 14:04:24;;;;;;;3.40;1.67;;;19.00;45.60;;;;;;6195352;28;20092;-68
2022/03/05 14:07:25;;;;;;;3.45;1.90;;;18.90;45.50;;;;;;6190710;28;20026;-67
2022/03/05 14:10:27;;;;;;;3.47;2.05;;;19.00;45.60;;;;;;6191935;28;20026;-67
2022/03/05 14:13:27;;;;;;;3.42;1.98;;;19.00;45.60;;;;;;6195306;28;20030;-67
2022/03/05 14:16:36;;;;;;;2.80;1.70;;;19.00;45.60;;;;;;6194999;28;20033;-67
2022/03/05 14:19:37;;;;;;;3.00;2.05;;;19.00;45.60;;;;;;6195075;28;20034;-68
2022/03/05 14:22:48;;;;;;;3.33;1.98;;;19.00;45.60;;;;;;6194676;28;20030;-68
2022/03/05 14:25:52;;;;;;;2.70;1.80;;;19.00;45.60;;;;;;6195528;28;20132;-67
2022/03/05 14:28:53;;;;;;;2.60;1.55;;;19.00;45.60;;;;;;6170806;28;20049;-67
2022/03/05 14:31:53;;;;;;;3.08;1.80;;;19.00;45.60;;;;;;6170626;28;20035;-67
2022/03/05 14:34:54;;;;;;;3.60;1.83;;;19.00;45.60;;;;;;6171316;28;20031;-67
2022/03/05 14:37:55;;;;;;;6.07;1.70;;;19.00;45.20;;;;;;6170636;28;20023;-68
2022/03/05 14:40:57;;;;;;;2.60;1.70;;;19.00;44.90;;;;;;6170467;28;20019;-68
2022/03/05 14:43:57;;;;;;;2.50;1.48;;;19.00;45.40;;;;;;6190456;28;20034;-67
2022/03/05 14:46:58;;;;;;;3.17;1.75;;;19.00;45.40;;;;;;6194617;28;20128;-68
2022/03/05 14:49:59;;;;;;;1.73;1.35;;;19.00;45.50;;;;;;6194403;28;20061;-68
2022/03/05 14:52:59;;;;;;;3.55;1.80;;;18.90;45.40;;;;;;6194184;28;20088;-68
2022/03/05 14:56:00;;;;;;;2.42;1.92;;;19.00;45.50;;;;;;6194022;28;20027;-67
2022/03/05 14:59:00;;;;;;;3.50;1.75;;;19.00;45.50;;;;;;6194565;28;20625;-69
2022/03/05 15:02:01;;;;;;;3.25;1.80;;;19.00;45.60;;;;;;6193231;28;20200;-68
2022/03/05 15:05:06;;;;;;;2.80;1.50;;;18.90;45.40;;;;;;6194187;28;20425;-68
2022/03/05 15:08:06;;;;;;;12.10;1.73;;;19.00;45.50;;;;;;6214332;28;20034;-68
2022/03/05 15:11:07;;;;;;;2.58;1.70;;;19.00;45.60;;;;;;6217865;28;20110;-68
2022/03/05 15:14:08;;;;;;;3.03;1.83;;;19.00;45.60;;;;;;6194347;28;20038;-67
2022/03/05 15:17:08;;;;;;;5.53;1.75;;;18.90;45.50;;;;;;6193588;28;20033;-67
2022/03/05 15:20:10;;;;;;;3.30;1.83;;;19.00;45.60;;;;;;6193532;28;20580;-67
2022/03/05 15:23:11;;;;;;;6.50;1.52;;;18.90;45.50;;;;;;6193539;28;20030;-67
2022/03/05 15:26:12;;;;;;;3.25;1.48;;;19.00;45.60;;;;;;6195860;28;20413;-68
2022/03/05 15:29:12;;;;;;;3.55;1.85;;;19.00;45.60;;;;;;6193518;28;20035;-67
2022/03/05 15:32:13;;;;;;;4.55;1.73;;;19.00;45.70;;;;;;6193436;28;20077;-67
2022/03/05 15:35:13;;;;;;;3.97;1.75;;;19.00;45.70;;;;;;6193792;28;20227;-67
2022/03/05 15:38:14;;;;;;;6.68;1.85;;;19.00;45.70;;;;;;6193136;28;20029;-68
2022/03/05 15:41:15;;;;;;;7.40;1.80;;;19.00;45.70;;;;;;6188829;28;20141;-68
2022/03/05 15:44:17;;;;;;;4.05;1.60;;;18.90;45.60;;;;;;6189150;28;20046;-67
2022/03/05 15:47:17;;;;;;;6.90;1.75;;;18.90;45.70;;;;;;6188867;28;20162;-67
2022/03/05 15:50:19;;;;;;;6.75;1.80;;;19.00;45.80;;;;;;6192025;28;20022;-68